createdAt,value
2023-05-13T00:03:42.553Z,99.90
2023-05-13T00:07:44.463Z,99.90
2023-05-13T00:11:46.260Z,99.90
2023-05-13T00:15:47.891Z,99.90
2023-05-13T00:19:49.493Z,99.90
2023-05-13T00:23:51.700Z,99.90
2023-05-13T00:27:53.402Z,99.90
2023-05-13T00:31:55.226Z,99.90
2023-05-13T00:35:57.496Z,99.90
2023-05-13T00:39:59.795Z,99.90
2023-05-13T00:44:01.494Z,99.90
2023-05-13T00:48:06.436Z,99.90
2023-05-13T00:52:08.292Z,99.90
2023-05-13T00:56:10.019Z,99.90
2023-05-13T01:00:12.169Z,99.90
2023-05-13T01:04:35.757Z,99.90
2023-05-13T01:09:07.951Z,99.90
2023-05-13T01:13:16.629Z,99.90
2023-05-13T01:17:31.757Z,99.90
2023-05-13T01:21:38.704Z,99.90
2023-05-13T01:25:40.952Z,99.90
2023-05-13T01:29:44.727Z,99.90
2023-05-13T01:33:47.453Z,99.90
2023-05-13T01:37:50.302Z,99.90
2023-05-13T01:41:52.120Z,99.90
2023-05-13T01:45:54.301Z,99.90
2023-05-13T01:49:56.070Z,99.90
2023-05-13T01:53:57.875Z,99.90
2023-05-13T01:57:59.531Z,99.90
2023-05-13T02:02:01.285Z,99.90
2023-05-13T02:06:03.098Z,99.90
2023-05-13T02:10:05.253Z,99.90
2023-05-13T02:14:06.996Z,99.90
2023-05-13T02:18:08.710Z,99.90
2023-05-13T02:22:10.557Z,99.90
2023-05-13T02:26:12.218Z,99.90
2023-05-13T02:30:14.054Z,99.90
2023-05-13T02:34:15.742Z,99.90
2023-05-13T02:38:17.358Z,99.90
2023-05-13T02:42:19.086Z,99.90
2023-05-13T02:46:20.800Z,99.90
2023-05-13T02:50:22.928Z,99.90
2023-05-13T02:54:24.732Z,99.90
2023-05-13T02:58:26.401Z,99.90
2023-05-13T03:02:28.261Z,99.90
2023-05-13T03:06:30.039Z,99.90
2023-05-13T03:10:31.675Z,99.90
2023-05-13T03:14:34.719Z,99.90
2023-05-13T03:18:36.432Z,99.90
2023-05-13T03:22:41.392Z,99.90
2023-05-13T03:26:43.011Z,99.90
2023-05-13T03:30:44.796Z,99.90
2023-05-13T03:34:46.419Z,99.90
2023-05-13T03:38:48.040Z,99.90
2023-05-13T03:42:49.654Z,99.90
2023-05-13T03:46:51.311Z,99.90
2023-05-13T03:50:53.105Z,99.90
2023-05-13T03:54:54.747Z,99.90
2023-05-13T03:58:56.395Z,99.90
2023-05-13T04:02:58.078Z,99.90
2023-05-13T04:06:59.788Z,99.90
2023-05-13T04:11:01.441Z,99.90
2023-05-13T04:15:03.277Z,99.90
2023-05-13T04:19:04.972Z,99.90
2023-05-13T04:23:07.241Z,99.90
2023-05-13T04:27:09.357Z,99.90
2023-05-13T04:31:12.190Z,99.90
2023-05-13T04:35:13.864Z,99.90
2023-05-13T04:39:15.783Z,99.90
2023-05-13T04:43:17.486Z,99.90
2023-05-13T04:47:19.201Z,99.90
2023-05-13T04:51:21.244Z,99.90
2023-05-13T04:55:23.750Z,99.90
2023-05-13T04:59:25.461Z,99.90
2023-05-13T05:03:27.189Z,99.90
2023-05-13T05:07:29.280Z,99.90
2023-05-13T05:11:31.121Z,99.90
2023-05-13T05:15:32.798Z,99.90
2023-05-13T05:19:34.510Z,99.90
2023-05-13T05:23:36.432Z,99.90
2023-05-13T05:27:38.209Z,99.90
2023-05-13T05:31:40.264Z,99.90
2023-05-13T05:35:42.044Z,99.90
2023-05-13T05:39:43.686Z,99.90
2023-05-13T05:43:45.529Z,99.90
2023-05-13T05:47:47.163Z,99.90
2023-05-13T05:51:49.038Z,99.90
2023-05-13T05:55:52.362Z,99.90
2023-05-13T05:59:55.038Z,99.90
2023-05-13T06:03:56.719Z,99.90
2023-05-13T06:07:58.436Z,99.90
2023-05-13T06:12:00.680Z,99.90
2023-05-13T06:16:02.385Z,99.90
2023-05-13T06:20:04.369Z,99.90
2023-05-13T06:24:06.286Z,99.90
2023-05-13T06:28:08.576Z,99.90
2023-05-13T06:32:10.306Z,99.90
2023-05-13T06:36:12.989Z,99.90
2023-05-13T06:40:14.676Z,99.90
2023-05-13T06:44:16.334Z,99.90
2023-05-13T06:48:17.976Z,99.90
2023-05-13T06:52:19.636Z,99.90
2023-05-13T06:56:24.177Z,99.90
2023-05-13T07:00:25.924Z,99.90
2023-05-13T07:04:30.046Z,99.90
2023-05-13T07:08:31.674Z,99.90
2023-05-13T07:12:33.790Z,99.90
2023-05-13T07:16:35.437Z,99.90
2023-05-13T07:20:37.565Z,99.90
2023-05-13T07:24:39.193Z,99.90
2023-05-13T07:28:40.952Z,99.90
2023-05-13T07:32:42.718Z,99.90
2023-05-13T07:36:44.502Z,99.90
2023-05-13T07:40:46.111Z,99.90
2023-05-13T07:44:47.745Z,99.90
2023-05-13T07:48:49.439Z,99.90
2023-05-13T07:52:51.745Z,99.90
2023-05-13T07:56:53.448Z,99.90
2023-05-13T08:00:55.217Z,99.90
2023-05-13T08:04:56.889Z,99.90
2023-05-13T08:08:58.537Z,99.90
2023-05-13T08:13:00.898Z,99.90
2023-05-13T08:17:05.585Z,99.90
2023-05-13T08:21:07.456Z,99.90
2023-05-13T08:25:11.170Z,99.90
2023-05-13T08:29:15.408Z,99.90
2023-05-13T08:33:17.055Z,99.90
2023-05-13T08:37:18.768Z,99.90
2023-05-13T08:41:22.556Z,99.90
2023-05-13T08:45:27.979Z,99.90
2023-05-13T08:49:29.756Z,99.90
2023-05-13T08:53:31.897Z,99.90
2023-05-13T08:57:33.663Z,99.90
2023-05-13T09:01:35.563Z,99.90
2023-05-13T09:05:38.907Z,99.90
2023-05-13T09:09:40.864Z,99.90
2023-05-13T09:13:44.516Z,99.90
2023-05-13T09:17:53.576Z,99.90
2023-05-13T09:21:55.730Z,99.90
2023-05-13T09:25:57.409Z,99.90
2023-05-13T09:30:00.528Z,99.90
2023-05-13T09:34:02.159Z,99.90
2023-05-13T09:38:13.678Z,97.20
2023-05-13T09:42:19.563Z,93.40
2023-05-13T09:46:21.492Z,95.60
2023-05-13T09:50:23.792Z,95.20
2023-05-13T09:54:27.211Z,92.10
2023-05-13T09:58:30.622Z,91.20
2023-05-13T10:02:33.151Z,89.30
2023-05-13T10:06:35.988Z,94.40
2023-05-13T10:10:38.629Z,91.30
2023-05-13T10:14:41.993Z,92.60
2023-05-13T10:18:43.702Z,94.10
2023-05-13T10:22:46.023Z,93.70
2023-05-13T10:26:51.702Z,92.70
2023-05-13T10:30:53.467Z,91.80
2023-05-13T10:35:04.287Z,92.40
2023-05-13T10:39:17.805Z,91.20
2023-05-13T10:43:23.009Z,94.10
2023-05-13T10:47:24.867Z,91.20
2023-05-13T10:51:27.032Z,89.80
2023-05-13T10:55:28.748Z,86.90
2023-05-13T10:59:30.770Z,91.30
2023-05-13T11:03:32.610Z,90.90
2023-05-13T11:07:39.211Z,85.80
2023-05-13T11:11:41.304Z,85.20
2023-05-13T11:15:49.757Z,86.50
2023-05-13T11:19:53.408Z,84.30
2023-05-13T11:24:05.957Z,90.50
2023-05-13T11:28:09.096Z,84.70
2023-05-13T11:32:10.828Z,84.40
2023-05-13T11:36:12.631Z,80.10
2023-05-13T11:40:23.241Z,78.80
2023-05-13T11:44:25.813Z,81.30
2023-05-13T11:48:27.614Z,82.10
2023-05-13T11:52:29.385Z,78.10
2023-05-13T11:56:31.139Z,77.40
2023-05-13T12:00:34.829Z,76.00
2023-05-13T12:04:36.770Z,75.40
2023-05-13T12:08:45.703Z,70.50
2023-05-13T12:12:47.997Z,68.40
2023-05-13T12:16:50.598Z,65.10
2023-05-13T12:20:52.324Z,64.70
2023-05-13T12:24:53.966Z,61.20
2023-05-13T12:28:59.849Z,60.70
2023-05-13T12:33:01.851Z,63.00
2023-05-13T12:37:12.177Z,61.10
2023-05-13T12:41:13.985Z,58.60
2023-05-13T12:45:15.764Z,61.90
2023-05-13T12:49:17.426Z,56.90
2023-05-13T12:53:19.087Z,60.00
2023-05-13T12:57:20.773Z,58.30
2023-05-13T13:01:22.702Z,59.20
2023-05-13T13:05:25.121Z,62.90
2023-05-13T13:09:27.082Z,66.60
2023-05-13T13:13:28.782Z,68.80
2023-05-13T13:17:30.507Z,73.20
2023-05-13T13:21:32.213Z,70.50
2023-05-13T13:25:33.916Z,72.90
2023-05-13T13:29:35.630Z,65.90
2023-05-13T13:33:37.278Z,68.50
2023-05-13T13:37:39.166Z,64.30
2023-05-13T13:41:40.860Z,64.40
2023-05-13T13:45:42.500Z,62.80
2023-05-13T13:49:44.192Z,62.30
2023-05-13T13:53:45.888Z,67.30
2023-05-13T13:57:47.837Z,61.80
2023-05-13T14:01:49.651Z,62.00
2023-05-13T14:05:51.858Z,62.40
2023-05-13T14:09:53.551Z,63.30
2023-05-13T14:13:55.264Z,65.70
2023-05-13T14:17:57.322Z,66.90
2023-05-13T14:21:59.074Z,65.70
2023-05-13T14:26:00.724Z,63.00
2023-05-13T14:30:02.543Z,62.60
2023-05-13T14:34:07.861Z,63.40
2023-05-13T14:38:27.762Z,66.00
2023-05-13T14:42:29.540Z,66.00
2023-05-13T14:46:33.886Z,66.50
2023-05-13T14:50:36.300Z,68.30
2023-05-13T14:54:38.230Z,68.10
2023-05-13T14:58:39.929Z,65.30
2023-05-13T15:02:41.721Z,63.00
2023-05-13T15:06:43.530Z,66.30
2023-05-13T15:10:45.964Z,70.40
2023-05-13T15:14:54.726Z,66.70
2023-05-13T15:18:56.442Z,71.60
2023-05-13T15:22:58.106Z,79.80
2023-05-13T15:27:01.220Z,85.40
2023-05-13T15:31:02.864Z,91.50
2023-05-13T15:35:04.928Z,91.70
2023-05-13T15:39:07.010Z,93.50
2023-05-13T15:43:08.739Z,97.00
2023-05-13T15:47:10.464Z,99.90
2023-05-13T15:51:12.217Z,99.90
2023-05-13T15:55:13.894Z,99.90
2023-05-13T15:59:15.563Z,99.90
2023-05-13T16:03:17.242Z,99.90
2023-05-13T16:07:18.864Z,99.90
2023-05-13T16:11:20.534Z,99.90
2023-05-13T16:15:22.228Z,99.90
2023-05-13T16:19:24.271Z,99.90
2023-05-13T16:23:25.926Z,99.90
2023-05-13T16:27:28.522Z,99.90
2023-05-13T16:31:30.412Z,99.90
2023-05-13T16:35:32.109Z,99.90
2023-05-13T16:39:33.784Z,99.90
2023-05-13T16:43:35.465Z,99.90
2023-05-13T16:47:37.293Z,99.90
2023-05-13T16:51:39.176Z,99.90
2023-05-13T16:55:40.826Z,99.90
2023-05-13T16:59:43.063Z,99.90
2023-05-13T17:03:44.782Z,99.90
2023-05-13T17:07:46.513Z,99.90
2023-05-13T17:11:48.152Z,99.90
2023-05-13T17:15:49.800Z,99.90
2023-05-13T17:19:51.463Z,99.90
2023-05-13T17:23:53.464Z,99.90
2023-05-13T17:27:55.179Z,99.90
2023-05-13T17:31:56.878Z,99.90
2023-05-13T17:35:58.751Z,99.90
2023-05-13T17:40:02.398Z,99.90
2023-05-13T17:44:04.172Z,99.90
2023-05-13T17:48:06.231Z,99.90
2023-05-13T17:52:08.024Z,99.90
2023-05-13T17:56:10.370Z,99.90
2023-05-13T18:00:13.676Z,99.90
2023-05-13T18:04:15.284Z,99.90
2023-05-13T18:08:16.860Z,99.90
2023-05-13T18:12:18.537Z,99.90
2023-05-13T18:16:20.459Z,99.90
2023-05-13T18:20:22.443Z,99.90
2023-05-13T18:24:24.380Z,99.90
2023-05-13T18:28:26.018Z,99.90
2023-05-13T18:32:27.721Z,99.90
2023-05-13T18:36:29.449Z,99.90
2023-05-13T18:40:31.526Z,99.90
2023-05-13T18:44:33.631Z,99.90
2023-05-13T18:48:35.503Z,99.90
2023-05-13T18:52:37.268Z,99.90
2023-05-13T18:56:39.088Z,99.90
2023-05-13T19:00:40.717Z,99.90
2023-05-13T19:04:42.389Z,99.90
2023-05-13T19:08:44.414Z,99.90
2023-05-13T19:12:46.038Z,99.90
2023-05-13T19:16:47.856Z,99.90
2023-05-13T19:20:49.520Z,99.90
2023-05-13T19:24:51.209Z,99.90
2023-05-13T19:28:52.889Z,99.90
2023-05-13T19:32:54.608Z,99.90
2023-05-13T19:36:56.283Z,99.90
2023-05-13T19:40:57.905Z,99.90
2023-05-13T19:44:59.573Z,99.90
2023-05-13T19:49:01.288Z,99.90
2023-05-13T19:53:02.912Z,99.90
2023-05-13T19:57:04.693Z,99.90
2023-05-13T20:01:06.331Z,99.90
2023-05-13T20:05:08.586Z,99.90
2023-05-13T20:09:11.817Z,99.90
2023-05-13T20:13:13.483Z,99.90
2023-05-13T20:17:18.054Z,99.90
2023-05-13T20:21:19.943Z,99.90
2023-05-13T20:25:21.672Z,99.90
2023-05-13T20:29:23.309Z,99.90
2023-05-13T20:33:25.001Z,99.90
2023-05-13T20:37:26.900Z,99.90
2023-05-13T20:41:28.743Z,99.90
2023-05-13T20:45:30.470Z,99.90
2023-05-13T20:49:33.870Z,99.90
2023-05-13T20:53:36.340Z,99.90
2023-05-13T20:57:38.069Z,99.90
2023-05-13T21:01:39.901Z,99.90
2023-05-13T21:05:41.593Z,99.90
2023-05-13T21:09:43.352Z,99.90
2023-05-13T21:13:44.973Z,99.90
2023-05-13T21:17:47.224Z,99.90
2023-05-13T21:21:49.312Z,99.90
2023-05-13T21:25:51.226Z,99.90
2023-05-13T21:29:52.886Z,99.90
2023-05-13T21:33:54.614Z,99.90
2023-05-13T21:38:08.217Z,99.90
2023-05-13T21:42:13.672Z,99.90
2023-05-13T21:46:15.339Z,99.90
2023-05-13T21:50:17.037Z,99.90
2023-05-13T21:54:19.099Z,99.90
2023-05-13T21:58:23.286Z,99.90
2023-05-13T22:02:25.358Z,99.90
2023-05-13T22:06:27.090Z,99.90
2023-05-13T22:10:29.633Z,99.90
2023-05-13T22:14:31.328Z,99.90
2023-05-13T22:18:33.105Z,99.90
2023-05-13T22:22:34.906Z,99.90
2023-05-13T22:26:36.739Z,99.90
2023-05-13T22:30:38.416Z,99.90
2023-05-13T22:34:40.152Z,99.90
2023-05-13T22:38:42.468Z,99.90
2023-05-13T22:42:44.145Z,99.90
2023-05-13T22:46:45.900Z,99.90
2023-05-13T22:50:47.763Z,99.90
2023-05-13T22:54:49.746Z,99.90
2023-05-13T22:58:51.415Z,99.90
2023-05-13T23:02:53.154Z,99.90
2023-05-13T23:06:54.906Z,99.90
2023-05-13T23:10:56.544Z,99.90
2023-05-13T23:14:58.157Z,99.90
2023-05-13T23:18:59.892Z,99.90
2023-05-13T23:23:01.625Z,99.90
2023-05-13T23:27:03.869Z,99.90
2023-05-13T23:31:05.614Z,99.90
2023-05-13T23:35:07.892Z,99.90
2023-05-13T23:39:09.568Z,99.90
2023-05-13T23:43:11.401Z,99.90
2023-05-13T23:47:13.420Z,99.90
2023-05-13T23:51:15.176Z,99.90
2023-05-13T23:55:18.508Z,99.90
2023-05-13T23:59:20.188Z,99.90
